Time;durP1;ratioP1;P1;durP2;ratioP2;P2;SDS_P1;SDS_P2;PMS_P1;PMS_P2;Temp;Humidity;BMP_temperature;BMP_pressure;BME280_temperature;BME280_humidity;BME280_pressure;Samples;Min_cycle;Max_cycle;Signal;HPM_P1;HPM_P2
2022/05/11 00:02:16;;;;;;;3.45;1.85;;;;;;;16.57;100.00;101348.66;5272497;28;20465;-69
2022/05/11 00:04:47;;;;;;;3.50;1.60;;;;;;;16.54;100.00;101338.19;5289127;28;20433;-70
2022/05/11 00:07:17;;;;;;;6.35;1.75;;;;;;;16.50;100.00;101334.19;5283186;28;20024;-70
2022/05/11 00:09:47;;;;;;;4.65;1.80;;;;;;;16.51;100.00;101327.72;5281571;28;20111;-70
2022/05/11 00:12:18;;;;;;;4.00;1.70;;;;;;;16.48;100.00;101323.53;5268209;28;20500;-71
2022/05/11 00:14:48;;;;;;;2.95;1.73;;;;;;;16.45;100.00;101323.91;5275105;28;20525;-71
2022/05/11 00:17:19;;;;;;;13.85;1.85;;;;;;;16.44;100.00;101316.00;5289204;28;20126;-70
2022/05/11 00:19:49;;;;;;;5.40;1.83;;;;;;;16.39;100.00;101321.16;5273001;28;20028;-71
2022/05/11 00:22:20;;;;;;;5.38;1.70;;;;;;;16.42;100.00;101315.38;5277750;28;20044;-70
2022/05/11 00:24:50;;;;;;;4.13;1.70;;;;;;;16.40;100.00;101318.25;5288585;28;20027;-70
2022/05/11 00:27:21;;;;;;;3.25;1.50;;;;;;;16.40;100.00;101312.00;5288525;28;20035;-70
2022/05/11 00:29:51;;;;;;;5.30;2.08;;;;;;;16.39;100.00;101304.91;5269627;28;20027;-70
2022/05/11 00:32:24;;;;;;;3.20;1.67;;;;;;;16.44;100.00;101303.28;5267666;28;20020;-70
2022/05/11 00:34:54;;;;;;;2.15;1.55;;;;;;;16.48;100.00;101298.34;5281406;28;20457;-70
2022/05/11 00:37:28;;;;;;;3.88;1.48;;;;;;;16.45;100.00;101301.44;5280303;28;20026;-70
2022/05/11 00:39:58;;;;;;;2.70;1.38;;;;;;;16.44;100.00;101297.88;5275284;28;20076;-70
2022/05/11 00:42:29;;;;;;;1.55;1.33;;;;;;;16.39;100.00;101294.09;5288692;28;20023;-70
2022/05/11 00:45:00;;;;;;;2.75;1.50;;;;;;;16.42;100.00;101285.59;5288068;28;20055;-71
2022/05/11 00:47:35;;;;;;;3.53;1.38;;;;;;;16.47;100.00;101297.50;5288600;27;20019;-71
2022/05/11 00:50:14;;;;;;;1.80;1.38;;;;;;;16.47;100.00;101293.97;5276902;28;20058;-71
2022/05/11 00:52:45;;;;;;;6.60;1.80;;;;;;;16.44;100.00;101295.16;5281094;28;20519;-70
2022/05/11 00:55:22;;;;;;;2.17;1.40;;;;;;;16.43;100.00;101289.97;5280421;28;20027;-70
2022/05/11 00:58:24;;;;;;;4.72;1.50;;;;;;;16.39;100.00;101281.38;5267075;28;20024;-70
2022/05/11 01:00:55;;;;;;;3.05;1.38;;;;;;;16.39;100.00;101278.66;5266558;28;20388;-70
2022/05/11 01:03:33;;;;;;;4.18;1.50;;;;;;;16.35;100.00;101276.53;5281390;28;20028;-71
2022/05/11 01:06:07;;;;;;;6.82;1.58;;;;;;;16.30;100.00;101267.13;5270007;28;20012;-70
2022/05/11 01:08:38;;;;;;;3.53;1.15;;;;;;;16.27;100.00;101275.66;5285437;28;20025;-70
2022/05/11 01:11:10;;;;;;;2.72;1.48;;;;;;;16.24;100.00;101267.06;5266593;28;20028;-71
2022/05/11 01:13:43;;;;;;;5.47;1.40;;;;;;;16.23;100.00;101268.09;5271350;28;20535;-71
2022/05/11 01:16:14;;;;;;;3.70;1.35;;;;;;;16.22;100.00;101269.16;5275749;28;20024;-71
2022/05/11 01:18:45;;;;;;;2.05;1.33;;;;;;;16.22;100.00;101264.56;5280724;28;20016;-70
2022/05/11 01:21:15;;;;;;;3.78;1.63;;;;;;;16.19;100.00;101270.34;5280590;28;20024;-70
2022/05/11 01:23:55;;;;;;;5.18;1.45;;;;;;;16.17;100.00;101261.59;5274012;28;20069;-71
2022/05/11 01:26:26;;;;;;;5.93;1.60;;;;;;;16.16;100.00;101265.31;5285041;28;20028;-70
2022/05/11 01:28:56;;;;;;;4.25;1.25;;;;;;;16.17;100.00;101268.88;5266041;28;20082;-70
2022/05/11 01:31:26;;;;;;;5.88;1.20;;;;;;;16.19;100.00;101264.09;5265777;28;20370;-71
2022/05/11 01:33:57;;;;;;;2.17;1.23;;;;;;;16.20;100.00;101263.91;5266190;28;20028;-70
2022/05/11 01:36:31;;;;;;;4.43;1.17;;;;;;;16.17;100.00;101258.91;5279204;28;20080;-71
2022/05/11 01:39:05;;;;;;;4.22;1.30;;;;;;;16.15;100.00;101260.94;5266395;28;20020;-71
2022/05/11 01:41:49;;;;;;;10.13;1.40;;;;;;;16.13;100.00;101257.59;5266325;28;20106;-71
2022/05/11 01:44:20;;;;;;;6.10;1.65;;;;;;;16.14;100.00;101255.72;5283427;28;20147;-71
2022/05/11 01:46:54;;;;;;;3.20;1.30;;;;;;;16.13;100.00;101252.19;5276501;28;20057;-70
2022/05/11 01:49:39;;;;;;;3.15;1.67;;;;;;;16.11;100.00;101251.53;5279520;28;20038;-70
2022/05/11 01:52:09;;;;;;;5.63;1.85;;;;;;;16.12;100.00;101250.50;5267308;28;20019;-71
2022/05/11 01:54:40;;;;;;;9.68;1.27;;;;;;;16.09;100.00;101248.19;5278350;28;20055;-71
2022/05/11 01:57:11;;;;;;;3.58;1.42;;;;;;;16.07;100.00;101242.13;5266663;28;20499;-71
2022/05/11 01:59:42;;;;;;;3.80;1.73;;;;;;;16.08;100.00;101248.38;5276003;28;20031;-71
2022/05/11 02:02:12;;;;;;;5.97;1.58;;;;;;;16.04;100.00;101237.09;5269703;28;20103;-70
2022/05/11 02:07:51;;;;;;;4.28;1.15;;;;;;;16.01;100.00;101234.75;5283373;28;20030;-70
2022/05/11 02:10:24;;;;;;;4.32;1.48;;;;;;;15.99;100.00;101231.41;5282057;28;20445;-71
2022/05/11 02:12:57;;;;;;;3.92;1.30;;;;;;;15.97;100.00;101236.19;5266104;28;20024;-70
2022/05/11 02:15:29;;;;;;;4.03;1.23;;;;;;;15.95;100.00;101236.38;5279727;28;20047;-70
2022/05/11 02:17:59;;;;;;;2.45;1.33;;;;;;;15.92;100.00;101233.25;5280150;28;20569;-71
2022/05/11 02:20:30;;;;;;;6.80;1.75;;;;;;;15.92;100.00;101233.25;5266800;28;20096;-72
2022/05/11 02:23:01;;;;;;;2.95;1.50;;;;;;;15.91;100.00;101237.78;5280858;28;20161;-72
2022/05/11 02:25:31;;;;;;;2.30;1.60;;;;;;;15.88;100.00;101229.22;5268928;28;20024;-71
2022/05/11 02:28:02;;;;;;;2.53;1.35;;;;;;;15.86;100.00;101231.28;5299002;28;20024;-71
2022/05/11 02:30:33;;;;;;;2.63;1.75;;;;;;;15.80;100.00;101228.31;5280986;28;20020;-71
2022/05/11 02:33:04;;;;;;;1.98;1.38;;;;;;;15.82;100.00;101227.31;5269434;28;20036;-70
2022/05/11 02:35:35;;;;;;;2.85;1.40;;;;;;;15.79;100.00;101228.50;5276479;28;20024;-70
2022/05/11 02:38:10;;;;;;;4.25;1.50;;;;;;;15.80;100.00;101231.00;5267486;28;20028;-70
2022/05/11 02:40:41;;;;;;;;;;;;;;;15.79;100.00;101226.63;5279608;28;20027;-71
2022/05/11 02:43:12;;;;;;;3.08;1.60;;;;;;;15.77;100.00;101222.47;5279179;28;19923;-71
2022/05/11 02:45:44;;;;;;;2.88;1.80;;;;;;;15.76;100.00;101229.75;5278714;28;20027;-70
2022/05/11 02:48:18;;;;;;;3.33;1.45;;;;;;;15.73;100.00;101229.28;5265710;28;20024;-70
2022/05/11 02:50:53;;;;;;;2.85;1.65;;;;;;;15.74;100.00;101218.25;5279259;28;20020;-71
2022/05/11 02:53:26;;;;;;;3.30;1.70;;;;;;;15.75;100.00;101216.38;5268490;28;20107;-70
2022/05/11 02:55:57;;;;;;;2.67;1.40;;;;;;;15.74;100.00;101220.97;5283106;28;20058;-71
2022/05/11 02:58:32;;;;;;;4.65;1.63;;;;;;;15.71;100.00;101221.34;5269606;28;20572;-71
2022/05/11 03:01:03;;;;;;;6.07;1.58;;;;;;;15.71;100.00;101225.91;5269317;28;20123;-71
2022/05/11 03:03:34;;;;;;;4.63;1.38;;;;;;;15.65;100.00;101218.56;5268966;28;20107;-71
2022/05/11 03:06:05;;;;;;;3.83;1.48;;;;;;;15.60;100.00;101216.38;5272233;28;20023;-70
2022/05/11 03:08:38;;;;;;;4.50;1.60;;;;;;;15.59;100.00;101216.59;5276875;28;20026;-69
2022/05/11 03:11:08;;;;;;;7.18;1.77;;;;;;;15.58;100.00;101218.47;5290231;28;20082;-70
2022/05/11 03:13:39;;;;;;;3.78;1.50;;;;;;;15.50;100.00;101205.03;5276905;28;20019;-69
2022/05/11 03:16:09;;;;;;;4.30;1.60;;;;;;;15.48;100.00;101205.25;5277197;28;20066;-70
2022/05/11 03:18:40;;;;;;;3.83;1.73;;;;;;;15.46;100.00;101201.03;5289094;28;20439;-70
2022/05/11 03:21:11;;;;;;;5.22;1.80;;;;;;;15.42;100.00;101199.75;5290024;28;20100;-70
2022/05/11 03:23:42;;;;;;;6.50;2.03;;;;;;;15.40;100.00;101202.63;5290115;28;20038;-70
2022/05/11 03:26:14;;;;;;;3.42;2.03;;;;;;;15.36;100.00;101192.38;5275992;28;20098;-70
2022/05/11 03:28:44;;;;;;;5.13;2.10;;;;;;;15.31;100.00;101194.81;5289480;28;20042;-70
2022/05/11 03:31:16;;;;;;;4.82;1.92;;;;;;;15.27;100.00;101195.22;5276080;28;20469;-69
2022/05/11 03:36:38;;;;;;;3.58;1.90;;;;;;;15.15;100.00;101188.59;5282860;28;20024;-70
2022/05/11 03:39:10;;;;;;;6.55;2.33;;;;;;;15.11;100.00;101189.16;5269180;28;20586;-69
2022/05/11 03:41:42;;;;;;;5.30;2.58;;;;;;;15.03;100.00;101185.53;5289750;28;20015;-70
2022/05/11 03:44:13;;;;;;;6.30;2.05;;;;;;;14.97;100.00;101188.16;5272681;28;20501;-69
2022/05/11 03:46:44;;;;;;;6.80;2.38;;;;;;;14.90;100.00;101189.91;5279464;28;20023;-69
2022/05/11 03:49:14;;;;;;;5.40;2.05;;;;;;;14.83;100.00;101183.59;5289447;28;20038;-69
2022/05/11 03:51:45;;;;;;;4.32;2.33;;;;;;;14.76;100.00;101184.34;5276966;28;20024;-69
2022/05/11 03:54:17;;;;;;;5.47;2.45;;;;;;;14.72;100.00;101183.03;5268208;28;20063;-69
2022/05/11 03:56:48;;;;;;;6.90;1.95;;;;;;;14.73;100.00;101192.78;5282527;28;20027;-70
2022/05/11 03:59:19;;;;;;;3.50;2.33;;;;;;;14.73;100.00;101189.25;5282020;28;20019;-71
2022/05/11 04:01:49;;;;;;;4.85;2.35;;;;;;;14.73;100.00;101189.25;5268858;28;20023;-70
2022/05/11 04:04:20;;;;;;;5.70;2.15;;;;;;;14.70;100.00;101189.63;5287935;28;20031;-70
2022/05/11 04:06:50;;;;;;;4.68;2.45;;;;;;;14.66;100.00;101189.16;5282473;28;20071;-69
2022/05/11 04:09:21;;;;;;;6.85;2.35;;;;;;;14.58;100.00;101193.81;5289256;27;20058;-69
2022/05/11 04:11:51;;;;;;;4.28;2.35;;;;;;;14.48;100.00;101177.88;5271542;28;20058;-70
2022/05/11 04:14:22;;;;;;;9.35;2.53;;;;;;;14.40;100.00;101186.00;5271415;28;20377;-69
2022/05/11 04:16:56;;;;;;;5.57;2.83;;;;;;;14.33;100.00;101188.59;5284219;28;20030;-69
2022/05/11 04:19:27;;;;;;;13.75;2.92;;;;;;;14.25;100.00;101185.97;5280723;28;20023;-70
2022/05/11 04:21:58;;;;;;;5.72;2.80;;;;;;;14.21;100.00;101190.06;5268291;28;20023;-70
2022/05/11 04:24:29;;;;;;;4.72;2.45;;;;;;;14.19;100.00;101189.41;5281573;28;20064;-69
2022/05/11 04:26:59;;;;;;;7.18;3.13;;;;;;;14.14;100.00;101189.94;5267682;28;20058;-70
2022/05/11 04:29:30;;;;;;;7.20;2.78;;;;;;;14.07;100.00;101191.69;5283376;28;20055;-70
2022/05/11 04:32:01;;;;;;;5.90;3.05;;;;;;;13.97;100.00;101185.72;5288948;28;20485;-69
2022/05/11 04:34:31;;;;;;;4.43;2.63;;;;;;;13.88;100.00;101184.91;5285311;28;20393;-70
2022/05/11 04:37:02;;;;;;;4.10;2.40;;;;;;;13.77;100.00;101195.28;5267616;28;20055;-69
2022/05/11 04:39:32;;;;;;;7.03;3.05;;;;;;;13.68;100.00;101189.09;5279461;28;20035;-69
2022/05/11 04:42:04;;;;;;;6.82;3.30;;;;;;;13.65;100.00;101189.44;5279834;28;20078;-70
2022/05/11 04:44:35;;;;;;;7.80;3.20;;;;;;;13.65;100.00;101195.69;5282550;28;20020;-69
2022/05/11 04:47:08;;;;;;;10.05;2.80;;;;;;;13.70;100.00;101193.31;5280084;28;20537;-69
2022/05/11 04:49:40;;;;;;;4.45;2.70;;;;;;;13.77;100.00;101195.28;5281122;28;20028;-70
2022/05/11 04:52:13;;;;;;;12.98;3.15;;;;;;;13.81;100.00;101196.63;5267508;28;20031;-70
2022/05/11 04:54:48;;;;;;;10.50;3.80;;;;;;;13.85;100.00;101195.22;5267225;28;20020;-70
2022/05/11 04:57:19;;;;;;;5.18;2.63;;;;;;;13.89;100.00;101185.75;5280818;28;20069;-70
2022/05/11 04:59:51;;;;;;;11.43;3.22;;;;;;;13.95;100.00;101195.81;5278060;28;20024;-70
2022/05/11 05:02:23;;;;;;;4.35;2.42;;;;;;;14.03;100.00;101203.03;5274108;28;20019;-70
2022/05/11 05:04:59;;;;;;;13.63;2.80;;;;;;;14.10;100.00;101194.00;5275117;28;20073;-69
2022/05/11 05:07:29;;;;;;;5.63;2.35;;;;;;;14.18;100.00;101204.75;5288284;28;20389;-69
2022/05/11 05:10:02;;;;;;;8.55;2.45;;;;;;;14.29;100.00;101213.44;5287992;28;20030;-69
2022/05/11 05:12:32;;;;;;;11.60;2.42;;;;;;;14.35;100.00;101207.31;5288033;28;20270;-69
2022/05/11 05:15:03;;;;;;;7.95;2.50;;;;;;;14.46;100.00;101209.59;5283841;28;20108;-70
2022/05/11 05:17:34;;;;;;;7.35;2.05;;;;;;;14.56;100.00;101204.81;5267024;28;20103;-69
2022/05/11 05:20:08;;;;;;;4.97;2.08;;;;;;;14.65;100.00;101219.88;5266847;28;20568;-70
2022/05/11 05:22:39;;;;;;;7.33;1.97;;;;;;;14.74;100.00;101224.19;5279193;28;20586;-69
2022/05/11 05:25:10;;;;;;;6.97;2.83;;;;;;;14.87;100.00;101228.13;5267105;27;20119;-70
2022/05/11 05:27:41;;;;;;;6.43;2.13;;;;;;;14.92;100.00;101226.53;5280410;28;20045;-70
2022/05/11 05:33:00;;;;;;;11.25;2.30;;;;;;;15.03;100.00;101233.34;5283933;28;20035;-71
2022/05/11 05:35:31;;;;;;;7.28;2.08;;;;;;;15.11;100.00;101229.69;5276019;27;20393;-70
2022/05/11 05:38:03;;;;;;;4.80;1.90;;;;;;;15.22;100.00;101232.78;5266120;28;20052;-73
2022/05/11 05:40:34;;;;;;;12.05;2.40;;;;;;;15.25;100.00;101237.78;5266522;28;20019;-71
2022/05/11 05:43:05;;;;;;;7.38;1.98;;;;;;;15.24;100.00;101238.81;5286902;28;20104;-70
2022/05/11 05:45:36;;;;;;;4.13;1.70;;;;;;;15.27;100.00;101241.16;5272695;28;20540;-71
2022/05/11 05:48:06;;;;;;;6.60;2.22;;;;;;;15.38;100.00;101239.00;5274407;28;20118;-71
2022/05/11 05:50:37;;;;;;;5.47;2.17;;;;;;;15.58;100.00;101244.66;5287164;28;20019;-69
2022/05/11 05:53:07;;;;;;;4.03;1.90;;;;;;;16.09;100.00;101237.34;5287421;28;20020;-70
2022/05/11 05:55:38;;;;;;;6.13;2.00;;;;;;;16.90;100.00;101243.28;5283632;28;20048;-70
2022/05/11 05:58:09;;;;;;;6.65;2.10;;;;;;;17.43;100.00;101243.59;5266357;28;20505;-71
2022/05/11 06:00:40;;;;;;;6.75;1.80;;;;;;;18.02;100.00;101242.97;5265777;28;20032;-69
2022/05/11 06:03:12;;;;;;;5.47;2.00;;;;;;;18.51;100.00;101236.31;5278224;28;20060;-69
2022/05/11 06:05:43;;;;;;;7.88;2.05;;;;;;;18.92;100.00;101239.88;5286777;28;20027;-68
2022/05/11 06:11:00;;;;;;;5.28;1.33;;;;;;;19.81;100.00;101237.28;5286967;28;20038;-73
2022/05/11 06:13:30;;;;;;;7.38;1.48;;;;;;;20.34;100.00;101234.25;5273688;28;20023;-71
2022/05/11 06:16:01;;;;;;;6.65;1.90;;;;;;;20.19;100.00;101241.91;5268606;28;20540;-71
2022/05/11 06:18:32;;;;;;;5.57;1.40;;;;;;;20.53;99.02;101232.41;5271533;28;20035;-71
2022/05/11 06:21:03;;;;;;;8.63;1.83;;;;;;;20.60;99.97;101235.13;5273959;28;20020;-69
2022/05/11 06:23:33;;;;;;;5.88;1.70;;;;;;;20.96;95.00;101231.63;5279236;28;20430;-69
2022/05/11 06:26:04;;;;;;;3.92;1.35;;;;;;;20.86;93.46;101234.03;5266365;28;20107;-69
2022/05/11 06:28:38;;;;;;;5.35;1.65;;;;;;;21.16;92.24;101234.13;5290343;28;20114;-69
2022/05/11 06:31:09;;;;;;;7.57;1.63;;;;;;;21.63;85.67;101224.34;5275017;28;20012;-69
2022/05/11 06:33:41;;;;;;;6.68;1.23;;;;;;;21.32;90.32;101225.38;5280399;28;20019;-70
2022/05/11 06:36:13;;;;;;;7.97;1.45;;;;;;;20.84;88.49;101228.81;5273120;28;20688;-69
2022/05/11 06:38:43;;;;;;;8.73;1.52;;;;;;;21.45;89.16;101227.09;5270486;28;20134;-70
2022/05/11 06:41:17;;;;;;;3.47;1.42;;;;;;;21.96;80.30;101229.34;5269883;28;20016;-69
2022/05/11 06:43:49;;;;;;;7.00;2.23;;;;;;;21.67;80.11;101230.19;5272057;28;20027;-70
2022/05/11 06:46:20;;;;;;;7.13;1.50;;;;;;;21.71;79.38;101226.75;5284274;27;20288;-69
2022/05/11 06:48:50;;;;;;;6.82;1.60;;;;;;;21.66;78.59;101228.50;5288597;28;20027;-69
2022/05/11 06:51:21;;;;;;;5.00;1.23;;;;;;;22.08;73.78;101217.63;5280574;28;20030;-70
2022/05/11 06:59:33;;;;;;;7.05;1.13;;;;;;;22.04;74.39;101220.00;5288095;28;20388;-70
2022/05/11 07:02:05;;;;;;;4.70;1.17;;;;;;;22.22;71.02;101217.22;5287790;28;20027;-70
2022/05/11 07:04:37;;;;;;;5.63;1.67;;;;;;;21.49;74.95;101220.13;5286681;28;20050;-71
2022/05/11 07:07:08;;;;;;;3.28;0.95;;;;;;;21.64;72.62;101230.66;5287513;28;20016;-70
2022/05/11 07:09:39;;;;;;;4.05;1.50;;;;;;;21.30;75.54;101216.59;5287855;28;20052;-70
2022/05/11 07:15:00;;;;;;;5.63;1.17;;;;;;;21.44;73.46;101217.25;5278398;27;20473;-71
2022/05/11 07:17:34;;;;;;;4.05;0.98;;;;;;;22.33;70.46;101225.66;5276426;28;20019;-69
2022/05/11 07:20:09;;;;;;;4.00;1.08;;;;;;;22.76;68.66;101211.69;5287718;28;20555;-69
2022/05/11 07:22:40;;;;;;;4.80;1.52;;;;;;;21.80;70.76;101220.97;5275659;27;20016;-69
2022/05/11 07:25:14;;;;;;;5.95;1.08;;;;;;;22.13;70.29;101215.88;5286016;28;20031;-71
2022/05/11 07:27:46;;;;;;;4.60;1.38;;;;;;;21.40;71.68;101219.59;5287393;28;20507;-70
2022/05/11 07:30:22;;;;;;;3.95;1.05;;;;;;;22.14;68.18;101220.31;5287537;28;20038;-70
2022/05/11 07:32:53;;;;;;;7.13;1.20;;;;;;;21.25;72.02;101215.56;5273593;28;20024;-70
2022/05/11 07:35:23;;;;;;;6.07;1.50;;;;;;;22.35;69.30;101210.72;5286799;28;20408;-71
2022/05/11 07:37:54;;;;;;;8.15;1.33;;;;;;;21.93;70.00;101216.16;5286954;28;20161;-69
2022/05/11 07:40:25;;;;;;;3.15;1.20;;;;;;;21.89;71.22;101216.88;5287549;28;20035;-71
2022/05/11 07:42:55;;;;;;;4.28;1.13;;;;;;;21.82;71.59;101221.56;5288028;28;20030;-70
2022/05/11 07:45:26;;;;;;;3.97;1.23;;;;;;;22.70;69.48;101220.84;5290569;28;20031;-70
2022/05/11 07:47:56;;;;;;;3.88;1.23;;;;;;;23.17;64.15;101218.94;5287465;28;20384;-70
2022/05/11 07:50:27;;;;;;;7.85;1.77;;;;;;;23.63;63.68;101219.03;5287239;28;20016;-69
2022/05/11 07:52:58;;;;;;;7.93;1.35;;;;;;;22.80;65.45;101217.53;5286845;28;20016;-69
2022/05/11 07:55:29;;;;;;;6.85;1.30;;;;;;;22.96;65.69;101220.38;5286195;28;20125;-70
2022/05/11 08:00:49;;;;;;;5.78;1.35;;;;;;;24.03;63.19;101200.66;5272305;28;20051;-70
2022/05/11 08:03:19;;;;;;;3.58;1.30;;;;;;;23.84;63.66;101209.34;5287162;28;20046;-70
2022/05/11 08:05:49;;;;;;;12.55;1.65;;;;;;;24.08;62.76;101210.88;5286191;27;20156;-70
2022/05/11 08:08:20;;;;;;;8.65;1.48;;;;;;;23.56;64.58;101221.09;5286820;28;20030;-71
2022/05/11 08:10:50;;;;;;;6.60;1.50;;;;;;;24.02;63.13;101211.88;5287001;28;20112;-71
2022/05/11 08:13:21;;;;;;;3.58;1.35;;;;;;;23.71;63.40;101207.75;5286173;28;20019;-69
2022/05/11 08:15:51;;;;;;;7.88;1.67;;;;;;;23.77;62.81;101206.75;5276078;28;20105;-71
2022/05/11 08:18:22;;;;;;;2.80;1.17;;;;;;;22.88;67.63;101203.47;5282674;28;20078;-72
2022/05/11 08:20:52;;;;;;;6.32;1.38;;;;;;;23.93;64.91;101189.50;5286713;28;20023;-71
2022/05/11 08:23:23;;;;;;;8.02;1.65;;;;;;;24.14;64.81;101198.09;5272368;28;20031;-71
2022/05/11 08:25:57;;;;;;;4.13;1.10;;;;;;;23.10;68.84;101196.34;5286285;28;20035;-70
2022/05/11 08:28:28;;;;;;;7.57;1.20;;;;;;;23.85;65.44;101200.06;5279222;28;20031;-70
2022/05/11 08:33:48;;;;;;;7.20;1.27;;;;;;;23.90;65.44;101194.66;5275250;28;20478;-71
2022/05/11 08:36:22;;;;;;;5.28;1.58;;;;;;;23.37;65.16;101196.63;5279069;28;20024;-70
2022/05/11 08:38:55;;;;;;;9.33;2.13;;;;;;;23.78;67.01;101194.72;5275954;28;20035;-71
2022/05/11 08:42:03;;;;;;;7.65;1.60;;;;;;;23.26;67.14;101184.63;5285847;28;20055;-70
2022/05/11 08:44:36;;;;;;;8.15;1.90;;;;;;;23.76;65.87;101189.50;5271580;28;20504;-71
2022/05/11 08:47:27;;;;;;;6.45;1.45;;;;;;;22.92;69.88;101188.28;5273119;28;20169;-70
2022/05/11 08:50:20;;;;;;;4.13;1.45;;;;;;;23.88;68.26;101186.69;5274025;28;20024;-71
2022/05/11 08:52:52;;;;;;;7.85;1.58;;;;;;;24.26;66.16;101193.38;5285727;28;20058;-70
2022/05/11 08:55:41;;;;;;;11.15;2.80;;;;;;;24.16;66.16;101193.22;5285440;28;20361;-70
2022/05/11 08:58:19;;;;;;;9.23;2.15;;;;;;;24.11;68.66;101193.13;5285922;28;20032;-70
2022/05/11 09:00:53;;;;;;;9.40;1.92;;;;;;;24.25;67.97;101183.50;5285756;28;20020;-70
2022/05/11 09:03:35;;;;;;;7.50;1.65;;;;;;;24.77;64.89;101184.06;5285906;28;20379;-70
2022/05/11 09:06:24;;;;;;;4.70;1.63;;;;;;;25.24;65.26;101177.28;5284946;27;20457;-70
2022/05/11 09:08:57;;;;;;;10.95;2.00;;;;;;;25.02;64.11;101180.81;5285658;28;20042;-70
2022/05/11 09:11:32;;;;;;;8.57;2.42;;;;;;;24.49;67.12;101176.75;5285510;28;20437;-71
2022/05/11 09:14:03;;;;;;;10.15;2.08;;;;;;;24.30;65.83;101178.09;5279396;28;20024;-71
2022/05/11 09:16:52;;;;;;;7.57;1.90;;;;;;;24.01;70.59;101166.38;5279057;28;20023;-70
2022/05/11 09:19:25;;;;;;;3.90;1.50;;;;;;;24.41;67.83;101168.16;5285398;28;20083;-71
2022/05/11 09:22:05;;;;;;;9.77;2.03;;;;;;;24.06;68.92;101166.47;5279499;27;20545;-71
2022/05/11 09:24:45;;;;;;;3.72;1.67;;;;;;;23.52;70.48;101158.59;5278249;28;20031;-70
2022/05/11 09:27:31;;;;;;;6.40;1.65;;;;;;;23.26;70.21;101162.75;5285143;28;20480;-70
2022/05/11 09:30:14;;;;;;;8.13;2.08;;;;;;;23.61;73.88;101169.16;5285188;28;20056;-71
2022/05/11 09:32:45;;;;;;;6.28;1.92;;;;;;;24.11;70.08;101152.00;5285212;28;20028;-70
2022/05/11 09:35:19;;;;;;;8.77;2.45;;;;;;;24.69;70.44;101162.53;5284169;28;20023;-71
2022/05/11 09:38:26;;;;;;;6.07;1.77;;;;;;;24.35;66.14;101172.69;5281285;28;20016;-71
2022/05/11 09:41:22;;;;;;;5.43;2.08;;;;;;;23.65;70.52;101167.63;5280409;28;20015;-70
2022/05/11 09:43:56;;;;;;;6.00;2.38;;;;;;;23.62;72.45;101152.47;5284942;28;20024;-70
2022/05/11 09:46:30;;;;;;;12.10;2.50;;;;;;;23.51;70.90;101156.94;5284674;28;20027;-71
2022/05/11 09:49:05;;;;;;;7.77;2.20;;;;;;;23.87;71.08;101156.78;5283104;28;20024;-70
2022/05/11 09:51:51;;;;;;;7.28;1.95;;;;;;;23.81;71.61;101152.31;5263895;28;20278;-70
2022/05/11 09:54:23;;;;;;;8.57;2.20;;;;;;;23.19;73.59;101150.25;5283078;28;20027;-71
2022/05/11 09:56:58;;;;;;;6.63;1.85;;;;;;;23.48;73.38;101148.38;5271175;28;20500;-71
2022/05/11 09:59:31;;;;;;;12.60;2.78;;;;;;;23.98;70.34;101148.50;5284620;28;20389;-70
2022/05/11 10:02:22;;;;;;;9.50;2.33;;;;;;;23.78;73.69;101151.72;5283771;28;20046;-71
2022/05/11 10:05:08;;;;;;;9.30;2.67;;;;;;;23.05;75.34;101149.72;5284498;28;20027;-70
2022/05/11 10:07:47;;;;;;;7.03;2.08;;;;;;;23.18;80.36;101141.22;5284732;28;20022;-71
2022/05/11 10:10:39;;;;;;;5.15;2.28;;;;;;;23.08;77.43;101137.44;5280810;28;20031;-71
2022/05/11 10:13:21;;;;;;;7.10;2.80;;;;;;;23.46;77.29;101140.41;5277669;28;20027;-71
2022/05/11 10:21:58;;;;;;;8.02;2.13;;;;;;;23.36;77.92;101136.66;5279763;28;20023;-71
2022/05/11 10:24:35;;;;;;;9.20;2.35;;;;;;;24.06;81.27;101132.75;5270590;28;20027;-70
2022/05/11 10:27:44;;;;;;;11.10;2.72;;;;;;;24.38;75.38;101133.00;5284498;28;20027;-71
2022/05/11 10:30:34;;;;;;;8.88;2.22;;;;;;;24.16;73.69;101130.16;5284403;28;20023;-71
2022/05/11 10:33:41;;;;;;;9.88;2.60;;;;;;;23.69;76.77;101141.41;5285508;28;20020;-70
2022/05/11 10:36:32;;;;;;;13.80;3.35;;;;;;;23.43;77.42;101134.59;5281649;28;20032;-71
2022/05/11 10:39:30;;;;;;;8.10;2.97;;;;;;;23.69;76.13;101128.53;5277848;28;20019;-72
2022/05/11 10:42:12;;;;;;;14.98;3.00;;;;;;;23.18;75.30;101133.00;5275881;28;20070;-71
2022/05/11 10:44:57;;;;;;;12.70;3.38;;;;;;;22.84;80.15;101126.53;5285296;28;20232;-71
2022/05/11 10:47:41;;;;;;;7.90;2.50;;;;;;;23.24;79.49;101125.72;5285233;28;20028;-71
2022/05/11 10:50:31;;;;;;;7.75;2.55;;;;;;;23.19;81.29;101118.28;5272651;28;20545;-70
2022/05/11 10:53:18;;;;;;;11.80;2.67;;;;;;;23.51;77.45;101101.34;5264496;28;20090;-71
2022/05/11 10:56:16;;;;;;;9.80;3.10;;;;;;;23.86;75.62;101103.91;5282394;28;20023;-71
2022/05/11 10:59:15;;;;;;;13.65;3.60;;;;;;;24.13;77.10;101108.72;5285136;28;20062;-71
2022/05/11 11:01:55;;;;;;;6.80;2.78;;;;;;;23.67;77.73;101105.22;5272030;28;20110;-71
2022/05/11 11:05:02;;;;;;;12.48;2.92;;;;;;;23.03;78.26;101105.34;5264311;28;20024;-71
2022/05/11 11:07:54;;;;;;;17.77;3.00;;;;;;;23.67;75.81;101097.00;5278635;28;20550;-70
2022/05/11 11:10:32;;;;;;;11.52;2.75;;;;;;;23.63;75.94;101095.81;5281503;28;20038;-71
2022/05/11 11:13:27;;;;;;;9.32;2.80;;;;;;;23.22;77.12;101100.53;5285761;28;20626;-70
2022/05/11 11:15:58;;;;;;;7.00;2.37;;;;;;;23.85;77.95;101099.53;5271412;28;20043;-71
2022/05/11 11:18:33;;;;;;;10.60;2.63;;;;;;;23.57;75.19;101102.28;5284650;28;20068;-70
2022/05/11 11:21:06;;;;;;;11.18;2.45;;;;;;;23.82;77.40;101097.25;5288665;28;20019;-70
2022/05/11 11:23:41;;;;;;;8.98;2.53;;;;;;;23.87;76.08;101091.03;5289065;27;20024;-71
2022/05/11 11:26:32;;;;;;;13.80;3.25;;;;;;;24.16;74.18;101087.13;5288778;28;20508;-71
2022/05/11 11:29:15;;;;;;;7.57;2.17;;;;;;;24.28;74.68;101095.25;5288999;28;20034;-71
2022/05/11 11:32:23;;;;;;;9.38;2.67;;;;;;;24.19;72.08;101078.41;5276014;28;20065;-71
2022/05/11 11:35:22;;;;;;;10.82;2.80;;;;;;;24.09;73.72;101082.91;5289704;28;20530;-70
2022/05/11 11:38:22;;;;;;;9.07;2.88;;;;;;;23.81;74.31;101094.78;5284815;27;20024;-70
2022/05/11 11:41:30;;;;;;;15.27;3.38;;;;;;;23.88;74.00;101089.97;5285090;28;20519;-70
2022/05/11 11:44:04;;;;;;;18.63;3.20;;;;;;;23.78;75.73;101072.28;5289776;28;20107;-71
2022/05/11 11:46:53;;;;;;;5.65;2.75;;;;;;;23.71;79.49;101070.78;5280248;28;20094;-71
2022/05/11 11:49:27;;;;;;;6.45;2.60;;;;;;;24.02;81.90;101075.69;5273991;28;20027;-70
2022/05/11 11:52:00;;;;;;;7.80;2.90;;;;;;;23.92;79.25;101071.94;5289896;28;20563;-70
2022/05/11 11:54:48;;;;;;;13.90;3.20;;;;;;;23.53;79.09;101067.16;5268700;28;20028;-70
2022/05/11 11:57:34;;;;;;;9.65;3.30;;;;;;;23.08;79.38;101071.78;5272559;28;20022;-70
2022/05/11 12:00:43;;;;;;;9.70;2.85;;;;;;;23.51;79.26;101068.50;5289370;28;20047;-70
2022/05/11 12:03:17;;;;;;;7.20;2.70;;;;;;;23.91;80.76;101065.66;5280590;28;20016;-70
2022/05/11 12:05:52;;;;;;;7.80;2.95;;;;;;;23.27;79.87;101059.56;5268977;28;20046;-71
2022/05/11 12:17:03;;;;;;;6.93;2.10;;;;;;;24.55;70.53;101046.06;5289150;28;20462;-71
2022/05/11 12:19:36;;;;;;;14.35;2.83;;;;;;;24.52;73.01;101039.16;5289247;28;20541;-70
2022/05/11 12:22:23;;;;;;;12.70;2.92;;;;;;;24.77;74.19;101044.13;5288900;28;20062;-70
2022/05/11 12:25:09;;;;;;;9.35;2.88;;;;;;;24.32;72.11;101057.22;5270486;28;20262;-70
2022/05/11 12:27:40;;;;;;;14.50;2.92;;;;;;;24.09;74.24;101042.59;5267579;28;20036;-70
2022/05/11 12:30:32;;;;;;;6.75;2.75;;;;;;;24.03;76.02;101036.22;5274286;28;20026;-70
2022/05/11 12:33:04;;;;;;;8.52;3.17;;;;;;;24.48;75.46;101039.91;5274874;28;20028;-70
2022/05/11 12:38:32;;;;;;;8.93;2.22;;;;;;;24.90;72.53;101039.31;5267221;28;20044;-70
2022/05/11 12:41:08;;;;;;;;;;;;;;;24.84;72.82;101030.22;5281510;28;20161;-70
2022/05/11 12:43:39;;;;;;;;;;;;;;;24.94;72.43;101030.31;5279469;28;19907;-70